Kearns, Utah
Current Conditions -  °F | °C
As of 4:53 PM on Saturday 22 Nov 2014 (Local Time) from KSLC Reporting Station
Moderate Rain Moderate Rain  
Wind Chill: 28°   Ceiling: 900
Heat Index: 38°   Visibility: 6mi
Dew Point: 36°   Wind: 20mph
Humidity: 93%   Direction: 350°N
Pressure: 29.84"   Gusts: 26mph
Location:  40.65°N, 111.96°W
Report Text: KSLC 222353Z 35017G23KT 6SM RA BR BKN009 OVC015 03/02 A2984 RMK AO2 WSHFT 2246 SLP098 P0018 60025 T00330022 10094 20033 53037
Loading
Personal Weather Stations






























Interactive Weather Map New forecast layout! Learn more

10-Day Weather Forecast

Advertisements
Track Severe Weather on mobile